Terminal Aerodrome Forecast
Issued by NWS Pueblo, CO

Home | Current Version | Previous Version | Text Only | Print | Product List | Glossary On
Versions: 1 2 3 4 5 6 7 8 9 10 11 12 13 14 15 16 17 18 19 20 21 22
000
FTUS45 KPUB 202333
TAFCOS
TAF
KCOS 202333Z 2100/2124 15015KT P6SM FEW120 SCT240
     FM210400 VRB06KT P6SM SCT120
     FM210800 35010KT P6SM FEW120
     FM211800 24013KT P6SM FEW100 SCT200=

USA.gov is the U.S. government's official web portal to all federal, state and local government web resources and services.